createdAt,value
2023-03-20T00:00:35.777Z,101883.31
2023-03-20T00:03:07.335Z,101873.63
2023-03-20T00:05:38.463Z,101871.66
2023-03-20T00:08:14.122Z,101870.34
2023-03-20T00:10:47.801Z,101856.03
2023-03-20T00:13:27.760Z,101840.63
2023-03-20T00:15:59.079Z,101834.13
2023-03-20T00:18:30.815Z,101814.06
2023-03-20T00:21:02.195Z,101826.31
2023-03-20T00:23:33.968Z,101825.69
2023-03-20T00:26:05.334Z,101823.69
2023-03-20T00:28:46.404Z,101821.63
2023-03-20T00:31:32.876Z,101820.03
2023-03-20T00:34:07.993Z,101828.78
2023-03-20T00:36:39.452Z,101828.59
2023-03-20T00:39:11.103Z,101827.22
2023-03-20T00:42:00.759Z,101839.47
2023-03-20T00:44:36.916Z,101839.63
2023-03-20T00:47:15.872Z,101834.16
2023-03-20T00:49:50.099Z,101820.00
2023-03-20T00:52:23.337Z,101822.06
2023-03-20T00:54:55.696Z,101816.38
2023-03-20T00:57:33.213Z,101814.06
2023-03-20T01:00:07.518Z,101817.69
2023-03-20T01:02:38.899Z,101819.13
2023-03-20T01:05:09.831Z,101816.50
2023-03-20T01:07:42.019Z,101808.59
2023-03-20T01:10:14.282Z,101816.97
2023-03-20T01:12:46.278Z,101808.34
2023-03-20T01:15:24.405Z,101800.31
2023-03-20T01:17:55.629Z,101797.34
2023-03-20T01:20:28.024Z,101787.28
2023-03-20T01:23:00.015Z,101776.34
2023-03-20T01:25:31.344Z,101777.13
2023-03-20T01:28:02.078Z,101770.00
2023-03-20T01:30:35.608Z,101773.31
2023-03-20T01:33:24.216Z,101762.78
2023-03-20T01:35:59.084Z,101758.22
2023-03-20T01:38:30.893Z,101750.38
2023-03-20T01:41:08.311Z,101745.69
2023-03-20T01:43:42.356Z,101730.38
2023-03-20T01:46:14.299Z,101735.13
2023-03-20T01:48:55.115Z,101734.63
2023-03-20T01:51:29.958Z,101741.38
2023-03-20T01:54:08.886Z,101730.91
2023-03-20T01:56:54.983Z,101713.63
2023-03-20T01:59:28.993Z,101722.66
2023-03-20T02:02:00.470Z,101723.03
2023-03-20T02:04:44.881Z,101720.50
2023-03-20T02:07:21.088Z,101713.13
2023-03-20T02:10:15.881Z,101713.84
2023-03-20T02:12:59.152Z,101713.13
2023-03-20T02:15:54.542Z,101707.50
2023-03-20T02:18:42.160Z,101698.94
2023-03-20T02:21:26.032Z,101710.38
2023-03-20T02:24:28.666Z,101701.22
2023-03-20T02:27:28.350Z,101701.22
2023-03-20T02:30:27.464Z,101702.81
2023-03-20T02:33:12.430Z,101694.81
2023-03-20T02:36:09.088Z,101687.41
2023-03-20T02:38:46.475Z,101688.84
2023-03-20T02:41:36.784Z,101691.97
2023-03-20T02:44:35.872Z,101694.25
2023-03-20T02:47:20.950Z,101683.22
2023-03-20T02:50:19.937Z,101685.13
2023-03-20T02:52:55.410Z,101673.34
2023-03-20T02:55:46.454Z,101665.72
2023-03-20T02:58:23.947Z,101658.94
2023-03-20T03:01:14.947Z,101655.88
2023-03-20T03:03:56.183Z,101647.81
2023-03-20T03:06:36.140Z,101653.06
2023-03-20T03:09:27.525Z,101656.38
2023-03-20T03:12:23.833Z,101660.03
2023-03-20T03:15:06.773Z,101658.44
2023-03-20T03:17:40.860Z,101660.31
2023-03-20T03:20:26.169Z,101646.72
2023-03-20T03:22:58.795Z,101673.41
2023-03-20T03:25:37.899Z,101670.50
2023-03-20T03:28:52.621Z,101669.41
2023-03-20T03:31:24.703Z,101673.19
2023-03-20T03:33:58.489Z,101673.59
2023-03-20T03:36:32.957Z,101667.31
2023-03-20T03:39:04.193Z,101678.22
2023-03-20T03:42:04.453Z,101671.09
2023-03-20T03:44:42.310Z,101679.41
2023-03-20T03:47:22.422Z,101671.84
2023-03-20T03:49:59.189Z,101673.63
2023-03-20T03:52:31.715Z,101655.13
2023-03-20T03:55:10.878Z,101656.16
2023-03-20T03:58:29.487Z,101669.09
2023-03-20T04:01:02.920Z,101673.16
2023-03-20T04:03:38.976Z,101665.41
2023-03-20T04:06:14.106Z,101670.13
2023-03-20T04:08:46.374Z,101664.69
2023-03-20T04:11:22.604Z,101663.34
2023-03-20T04:13:55.506Z,101675.53
2023-03-20T04:16:27.728Z,101663.38
2023-03-20T04:18:59.358Z,101655.22
2023-03-20T04:21:31.066Z,101666.66
2023-03-20T04:24:02.606Z,101669.78
2023-03-20T04:26:33.777Z,101649.88
2023-03-20T04:29:05.022Z,101656.06
2023-03-20T04:31:56.124Z,101663.13
2023-03-20T04:34:59.109Z,101649.88
2023-03-20T04:37:36.251Z,101660.47
2023-03-20T04:40:11.232Z,101666.53
2023-03-20T04:42:45.726Z,101663.84
2023-03-20T04:45:17.205Z,101663.25
2023-03-20T04:47:47.861Z,101667.78
2023-03-20T04:50:20.469Z,101638.72
2023-03-20T04:52:53.836Z,101668.97
2023-03-20T04:55:25.714Z,101677.56
2023-03-20T04:57:58.330Z,101678.56
2023-03-20T05:00:31.117Z,101649.16
2023-03-20T05:03:03.070Z,101676.16
2023-03-20T05:05:35.795Z,101676.38
2023-03-20T05:08:08.460Z,101675.34
2023-03-20T05:10:41.821Z,101674.91
2023-03-20T05:13:36.043Z,101681.22
2023-03-20T05:16:27.075Z,101671.81
2023-03-20T05:19:24.493Z,101673.56
2023-03-20T05:22:22.818Z,101673.19
2023-03-20T05:25:22.619Z,101674.47
2023-03-20T05:28:22.889Z,101673.72
2023-03-20T05:31:12.754Z,101672.97
2023-03-20T05:34:07.341Z,101684.69
2023-03-20T05:36:57.261Z,101684.88
2023-03-20T05:40:04.689Z,101687.47
2023-03-20T05:42:38.717Z,101683.81
2023-03-20T05:45:31.628Z,101686.03
2023-03-20T05:48:20.507Z,101676.41
2023-03-20T05:51:10.658Z,101670.31
2023-03-20T05:54:02.221Z,101690.56
2023-03-20T05:56:37.519Z,101685.94
2023-03-20T05:59:29.335Z,101676.94
2023-03-20T06:02:26.495Z,101672.28
2023-03-20T06:05:07.425Z,101681.34
2023-03-20T06:07:47.027Z,101686.63
2023-03-20T06:10:21.531Z,101661.31
2023-03-20T06:12:54.231Z,101694.06
2023-03-20T06:15:31.878Z,101685.63
2023-03-20T06:18:13.713Z,101686.97
2023-03-20T06:20:44.989Z,101688.34
2023-03-20T06:23:16.446Z,101695.72
2023-03-20T06:25:47.453Z,101696.28
2023-03-20T06:28:19.104Z,101699.50
2023-03-20T06:30:54.865Z,101707.41
2023-03-20T06:33:27.599Z,101703.00
2023-03-20T06:36:02.273Z,101706.81
2023-03-20T06:38:35.428Z,101694.28
2023-03-20T06:41:21.460Z,101709.53
2023-03-20T06:43:59.517Z,101705.16
2023-03-20T06:46:43.730Z,101697.78
2023-03-20T06:49:15.321Z,101692.59
2023-03-20T06:51:46.841Z,101694.00
2023-03-20T06:54:25.510Z,101698.81
2023-03-20T06:56:58.352Z,101697.22
2023-03-20T06:59:29.776Z,101703.19
2023-03-20T07:02:01.762Z,101693.34
2023-03-20T07:04:33.300Z,101700.69
2023-03-20T07:07:05.909Z,101699.88
2023-03-20T07:09:39.066Z,101688.31
2023-03-20T07:12:21.745Z,101707.50
2023-03-20T07:14:53.022Z,101705.88
2023-03-20T07:17:25.030Z,101708.50
2023-03-20T07:19:56.472Z,101707.97
2023-03-20T07:22:32.847Z,101700.34
2023-03-20T07:25:39.671Z,101712.81
2023-03-20T07:28:17.359Z,101708.47
2023-03-20T07:30:55.089Z,101710.63
2023-03-20T07:33:28.464Z,101714.28
2023-03-20T07:35:59.752Z,101725.97
2023-03-20T07:38:31.285Z,101725.13
2023-03-20T07:41:11.518Z,101717.81
2023-03-20T07:43:46.548Z,101710.97
2023-03-20T07:46:50.545Z,101710.75
2023-03-20T07:49:22.017Z,101716.97
2023-03-20T07:51:55.988Z,101724.00
2023-03-20T07:54:27.401Z,101714.16
2023-03-20T07:56:59.411Z,101696.06
2023-03-20T07:59:30.193Z,101728.56
2023-03-20T08:02:01.529Z,101707.13
2023-03-20T08:04:32.455Z,101727.09
2023-03-20T08:07:04.177Z,101724.53
2023-03-20T08:09:37.433Z,101731.50
2023-03-20T08:12:08.878Z,101728.00
2023-03-20T08:14:41.360Z,101729.16
2023-03-20T08:17:16.076Z,101725.38
2023-03-20T08:19:48.206Z,101721.94
2023-03-20T08:22:20.121Z,101725.56
2023-03-20T08:24:51.445Z,101697.88
2023-03-20T08:27:22.886Z,101725.88
2023-03-20T08:29:53.567Z,101722.38
2023-03-20T08:32:25.253Z,101718.59
2023-03-20T08:34:57.390Z,101724.59
2023-03-20T08:37:28.900Z,101729.72
2023-03-20T08:40:00.232Z,101736.94
2023-03-20T08:42:31.655Z,101730.00
2023-03-20T08:45:02.991Z,101726.47
2023-03-20T08:47:34.302Z,101738.69
2023-03-20T08:50:06.059Z,101736.09
2023-03-20T08:52:37.869Z,101724.38
2023-03-20T08:55:09.544Z,101730.19
2023-03-20T08:57:43.274Z,101730.66
2023-03-20T09:00:17.254Z,101733.19
2023-03-20T09:02:48.428Z,101735.03
2023-03-20T09:05:20.035Z,101728.19
2023-03-20T09:07:51.185Z,101720.50
2023-03-20T09:10:23.232Z,101723.97
2023-03-20T09:12:54.663Z,101724.75
2023-03-20T09:15:26.018Z,101719.06
2023-03-20T09:17:57.376Z,101731.00
2023-03-20T09:20:28.518Z,101728.63
2023-03-20T09:22:59.953Z,101729.28
2023-03-20T09:25:31.233Z,101718.09
2023-03-20T09:28:02.462Z,101729.47
2023-03-20T09:30:34.218Z,101732.75
2023-03-20T09:33:05.866Z,101713.09
2023-03-20T09:35:37.758Z,101716.53
2023-03-20T09:38:08.276Z,101715.59
2023-03-20T09:40:51.354Z,101706.91
2023-03-20T09:43:27.562Z,101703.59
2023-03-20T09:46:17.472Z,101701.16
2023-03-20T09:48:55.059Z,101700.97
2023-03-20T09:51:44.056Z,101701.66
2023-03-20T09:54:21.171Z,101695.00
2023-03-20T09:56:53.905Z,101674.56
2023-03-20T09:59:27.595Z,101684.41
2023-03-20T10:02:04.482Z,101684.81
2023-03-20T10:04:36.408Z,101671.63
2023-03-20T10:07:08.825Z,101674.44
2023-03-20T10:09:40.246Z,101655.78
2023-03-20T10:12:31.670Z,101650.66
2023-03-20T10:15:34.516Z,101664.28
2023-03-20T10:18:11.769Z,101654.84
2023-03-20T10:21:02.022Z,101647.88
2023-03-20T10:23:56.265Z,101642.69
2023-03-20T10:26:27.883Z,101633.50
2023-03-20T10:29:27.546Z,101630.78
2023-03-20T10:32:09.915Z,101624.75
2023-03-20T10:34:53.286Z,101624.53
2023-03-20T10:37:30.550Z,101618.63
2023-03-20T10:40:11.350Z,101619.34
2023-03-20T10:42:46.024Z,101618.38
2023-03-20T10:46:12.143Z,101617.69
2023-03-20T10:48:49.353Z,101600.50
2023-03-20T10:51:22.615Z,101618.38
2023-03-20T10:54:01.385Z,101607.75
2023-03-20T10:56:40.813Z,101604.66
2023-03-20T10:59:35.568Z,101601.66
2023-03-20T11:02:18.716Z,101601.09
2023-03-20T11:04:50.273Z,101604.59
2023-03-20T11:07:40.700Z,101602.34
2023-03-20T11:10:18.403Z,101604.19
2023-03-20T11:12:51.631Z,101606.00
2023-03-20T11:15:24.547Z,101610.34
2023-03-20T11:18:04.006Z,101606.31
2023-03-20T11:20:38.210Z,101607.53
2023-03-20T11:23:10.426Z,101605.63
2023-03-20T11:25:54.443Z,101594.84
2023-03-20T11:28:37.909Z,101607.47
2023-03-20T11:31:37.531Z,101603.28
2023-03-20T11:34:17.971Z,101591.88
2023-03-20T11:37:16.481Z,101599.19
2023-03-20T11:40:19.259Z,101592.28
2023-03-20T11:42:59.551Z,101581.56
2023-03-20T11:45:38.908Z,101579.59
2023-03-20T11:48:21.220Z,101577.88
2023-03-20T11:51:02.914Z,101581.41
2023-03-20T11:53:34.807Z,101575.56
2023-03-20T11:56:14.518Z,101573.19
2023-03-20T11:59:01.288Z,101571.47
2023-03-20T12:01:48.408Z,101556.78
2023-03-20T12:04:23.475Z,101560.16
2023-03-20T12:07:12.733Z,101543.53
2023-03-20T12:10:05.232Z,101533.03
2023-03-20T12:13:08.156Z,101519.13
2023-03-20T12:15:46.662Z,101506.88
2023-03-20T12:18:37.793Z,101513.06
2023-03-20T12:21:29.414Z,101500.31
2023-03-20T12:24:11.083Z,101500.53
2023-03-20T12:26:55.449Z,101507.78
2023-03-20T12:29:35.337Z,101507.44
2023-03-20T12:32:27.370Z,101499.19
2023-03-20T12:35:02.249Z,101499.34
2023-03-20T12:37:34.137Z,101493.00
2023-03-20T12:40:08.985Z,101483.00
2023-03-20T12:43:02.010Z,101491.03
2023-03-20T12:45:33.209Z,101495.22
2023-03-20T12:48:27.362Z,101502.94
2023-03-20T12:51:07.462Z,101488.94
2023-03-20T12:54:16.839Z,101503.84
2023-03-20T12:56:53.816Z,101522.44
2023-03-20T12:59:51.954Z,101517.34
2023-03-20T13:02:35.803Z,101479.81
2023-03-20T13:05:11.818Z,101516.81
2023-03-20T13:08:01.764Z,101516.56
2023-03-20T13:10:38.182Z,101500.41
2023-03-20T13:13:15.603Z,101491.63
2023-03-20T13:15:49.654Z,101496.47
2023-03-20T13:18:49.090Z,101461.66
2023-03-20T13:21:48.608Z,101461.72
2023-03-20T13:24:29.273Z,101497.97
2023-03-20T13:27:07.525Z,101495.59
2023-03-20T13:30:17.811Z,101482.28
2023-03-20T13:33:07.626Z,101479.41
2023-03-20T13:35:51.875Z,101478.97
2023-03-20T13:38:27.094Z,101477.34
2023-03-20T13:41:07.223Z,101482.75
2023-03-20T13:43:46.022Z,101480.47
2023-03-20T13:46:21.449Z,101482.59
2023-03-20T13:48:54.870Z,101478.25
2023-03-20T13:51:42.400Z,101471.09
2023-03-20T13:54:32.130Z,101472.56
2023-03-20T13:57:29.563Z,101460.19
2023-03-20T14:00:23.921Z,101468.44
2023-03-20T14:03:13.093Z,101448.59
2023-03-20T14:05:46.120Z,101461.88
2023-03-20T14:08:37.065Z,101454.09
2023-03-20T14:11:15.781Z,101457.06
2023-03-20T14:13:52.633Z,101438.50
2023-03-20T14:16:24.276Z,101450.22
2023-03-20T14:19:06.464Z,101436.59
2023-03-20T14:21:38.768Z,101441.53
2023-03-20T14:24:12.993Z,101413.44
2023-03-20T14:26:44.954Z,101438.31
2023-03-20T14:29:16.592Z,101422.34
2023-03-20T14:31:51.191Z,101407.88
2023-03-20T14:34:28.677Z,101426.50
2023-03-20T14:37:07.260Z,101411.91
2023-03-20T14:39:55.534Z,101417.56
2023-03-20T14:42:50.739Z,101406.31
2023-03-20T14:45:44.476Z,101398.19
2023-03-20T14:48:30.968Z,101400.16
2023-03-20T14:51:24.458Z,101385.31
2023-03-20T14:54:01.032Z,101389.56
2023-03-20T14:56:35.742Z,101376.78
2023-03-20T14:59:13.620Z,101388.50
2023-03-20T15:01:57.358Z,101386.53
2023-03-20T15:04:44.280Z,101382.94
2023-03-20T15:07:26.498Z,101369.47
2023-03-20T15:10:01.129Z,101362.97
2023-03-20T15:12:36.989Z,101379.16
2023-03-20T15:15:10.977Z,101357.69
2023-03-20T15:17:49.319Z,101346.84
2023-03-20T15:20:22.461Z,101344.41
2023-03-20T15:22:59.403Z,101352.78
2023-03-20T15:25:47.375Z,101340.56
2023-03-20T15:28:22.182Z,101348.84
2023-03-20T15:30:56.430Z,101341.72
2023-03-20T15:33:38.520Z,101331.94
2023-03-20T15:36:12.335Z,101323.81
2023-03-20T15:38:43.680Z,101292.66
2023-03-20T15:41:36.191Z,101309.13
2023-03-20T15:44:21.767Z,101312.72
2023-03-20T15:47:06.401Z,101303.31
2023-03-20T15:49:38.141Z,101297.53
2023-03-20T15:52:23.057Z,101297.41
2023-03-20T15:54:54.089Z,101290.69
2023-03-20T15:57:35.786Z,101295.75
2023-03-20T16:00:10.504Z,101288.47
2023-03-20T16:02:42.069Z,101285.78
2023-03-20T16:05:17.844Z,101268.44
2023-03-20T16:07:49.676Z,101271.34
2023-03-20T16:10:28.323Z,101266.59
2023-03-20T16:13:00.419Z,101261.44
2023-03-20T16:15:33.430Z,101259.03
2023-03-20T16:18:07.143Z,101246.53
2023-03-20T16:20:42.705Z,101245.72
2023-03-20T16:23:16.708Z,101254.09
2023-03-20T16:25:48.049Z,101244.56
2023-03-20T16:28:19.405Z,101241.00
2023-03-20T16:30:50.947Z,101246.94
2023-03-20T16:33:21.674Z,101237.75
2023-03-20T16:35:53.132Z,101230.38
2023-03-20T16:38:36.576Z,101218.47
2023-03-20T16:41:24.596Z,101213.47
2023-03-20T16:43:58.564Z,101212.38
2023-03-20T16:46:30.784Z,101206.81
2023-03-20T16:49:24.656Z,101209.06
2023-03-20T16:52:01.039Z,101208.28
2023-03-20T16:54:35.087Z,101206.13
2023-03-20T16:57:11.222Z,101202.94
2023-03-20T16:59:42.784Z,101204.84
2023-03-20T17:02:33.637Z,101198.75
2023-03-20T17:05:08.497Z,101200.47
2023-03-20T17:07:40.533Z,101200.53
2023-03-20T17:10:25.777Z,101206.22
2023-03-20T17:12:57.004Z,101185.03
2023-03-20T17:15:28.475Z,101211.28
2023-03-20T17:18:00.159Z,101192.78
2023-03-20T17:20:33.530Z,101208.69
2023-03-20T17:23:05.114Z,101212.66
2023-03-20T17:25:36.361Z,101209.19
2023-03-20T17:28:07.781Z,101200.44
2023-03-20T17:30:39.435Z,101183.00
2023-03-20T17:33:18.438Z,101200.09
2023-03-20T17:35:50.495Z,101193.28
2023-03-20T17:38:24.221Z,101190.03
2023-03-20T17:40:55.977Z,101190.31
2023-03-20T17:43:27.701Z,101193.88
2023-03-20T17:45:59.396Z,101167.50
2023-03-20T17:48:30.998Z,101158.47
2023-03-20T17:51:01.926Z,101161.16
2023-03-20T17:53:33.281Z,101156.81
2023-03-20T17:56:04.591Z,101152.81
2023-03-20T17:58:36.331Z,101158.50
2023-03-20T18:01:11.068Z,101170.22
2023-03-20T18:03:42.820Z,101167.56
2023-03-20T18:06:26.514Z,101173.22
2023-03-20T18:08:59.476Z,101160.44
2023-03-20T18:11:32.279Z,101165.91
2023-03-20T18:14:04.178Z,101175.75
2023-03-20T18:16:35.669Z,101187.44
2023-03-20T18:19:07.230Z,101180.44
2023-03-20T18:21:38.388Z,101175.84
2023-03-20T18:24:10.469Z,101182.66
2023-03-20T18:26:41.198Z,101175.59
2023-03-20T18:29:13.058Z,101162.59
2023-03-20T18:31:44.820Z,101172.00
2023-03-20T18:34:16.639Z,101170.97
2023-03-20T18:36:47.647Z,101168.22
2023-03-20T18:39:21.268Z,101178.09
2023-03-20T18:41:53.420Z,101182.19
2023-03-20T18:44:24.885Z,101179.81
2023-03-20T18:46:56.057Z,101188.06
2023-03-20T18:49:27.710Z,101201.06
2023-03-20T18:51:59.216Z,101194.88
2023-03-20T18:54:30.421Z,101191.91
2023-03-20T18:57:02.438Z,101195.94
2023-03-20T18:59:33.808Z,101197.41
2023-03-20T19:02:05.037Z,101197.38
2023-03-20T19:04:37.017Z,101190.88
2023-03-20T19:07:08.310Z,101187.63
2023-03-20T19:09:39.629Z,101179.00
2023-03-20T19:12:11.678Z,101175.75
2023-03-20T19:14:42.920Z,101170.56
2023-03-20T19:17:14.973Z,101163.19
2023-03-20T19:19:46.256Z,101156.09
2023-03-20T19:22:29.044Z,101160.47
2023-03-20T19:25:00.645Z,101158.06
2023-03-20T19:27:33.029Z,101158.69
2023-03-20T19:30:06.031Z,101163.44
2023-03-20T19:32:38.304Z,101157.38
2023-03-20T19:35:50.261Z,101156.84
2023-03-20T19:38:00.761Z,101153.09
2023-03-20T19:40:42.502Z,101145.44
2023-03-20T19:43:15.492Z,101152.31
2023-03-20T19:45:47.270Z,101146.63
2023-03-20T19:48:20.951Z,101127.88
2023-03-20T19:50:53.419Z,101134.66
2023-03-20T19:53:28.106Z,101129.75
2023-03-20T19:55:59.680Z,101116.44
2023-03-20T19:58:31.271Z,101127.59
2023-03-20T20:01:10.370Z,101126.47
2023-03-20T20:03:43.907Z,101132.78
2023-03-20T20:06:15.953Z,101138.47
2023-03-20T20:08:49.312Z,101134.94
2023-03-20T20:11:22.157Z,101135.97
2023-03-20T20:14:10.584Z,101138.34
2023-03-20T20:16:46.919Z,101124.66
2023-03-20T20:19:21.803Z,101112.19
2023-03-20T20:24:44.780Z,101123.53
2023-03-20T20:27:17.119Z,101117.81
2023-03-20T20:29:54.239Z,101109.91
2023-03-20T20:32:27.906Z,101116.94
2023-03-20T20:35:39.888Z,101104.19
2023-03-20T20:38:30.713Z,101110.06
2023-03-20T20:40:43.800Z,101083.88
2023-03-20T20:43:38.979Z,101098.72
2023-03-20T20:46:06.920Z,101095.94
2023-03-20T20:48:39.408Z,101088.66
2023-03-20T20:51:11.121Z,101079.53
2023-03-20T20:53:42.789Z,101064.13
2023-03-20T20:56:13.702Z,101070.38
2023-03-20T20:58:44.862Z,101083.47
2023-03-20T21:01:15.893Z,101079.59
2023-03-20T21:03:47.449Z,101068.91
2023-03-20T21:06:18.883Z,101058.03
2023-03-20T21:08:50.280Z,101064.78
2023-03-20T21:11:22.272Z,101071.63
2023-03-20T21:13:54.635Z,101056.53
2023-03-20T21:16:25.277Z,101066.91
2023-03-20T21:18:56.963Z,101061.13
2023-03-20T21:21:28.324Z,101055.78
2023-03-20T21:23:59.615Z,101048.31
2023-03-20T21:26:31.024Z,101049.56
2023-03-20T21:29:02.345Z,101052.59
2023-03-20T21:31:33.936Z,101051.41
2023-03-20T21:34:07.706Z,101053.19
2023-03-20T21:36:39.400Z,101063.69
2023-03-20T21:39:11.374Z,101065.19
2023-03-20T21:41:43.594Z,101051.56
2023-03-20T21:44:18.185Z,101037.63
2023-03-20T21:59:02.923Z,101043.97
2023-03-20T22:05:02.060Z,101026.84
2023-03-20T22:16:10.818Z,101016.97
2023-03-20T22:24:48.493Z,101019.88
2023-03-20T22:30:34.541Z,101025.22
2023-03-20T22:33:27.316Z,101016.84
2023-03-20T22:36:18.716Z,101010.16
2023-03-20T22:39:05.244Z,101059.84
2023-03-20T22:47:03.547Z,101076.03
2023-03-20T22:49:34.757Z,101066.47
2023-03-20T22:52:20.046Z,101063.63
2023-03-20T22:54:57.371Z,101056.19
2023-03-20T22:57:40.233Z,101043.66
2023-03-20T23:00:14.534Z,101026.38
2023-03-20T23:02:46.616Z,101039.19
2023-03-20T23:05:19.307Z,101014.28
2023-03-20T23:07:50.091Z,101019.97
2023-03-20T23:10:22.086Z,101011.59
2023-03-20T23:12:53.444Z,101006.47
2023-03-20T23:15:25.003Z,101003.13
2023-03-20T23:17:56.985Z,101009.81
2023-03-20T23:20:27.753Z,100999.25
2023-03-20T23:22:59.577Z,101009.66
2023-03-20T23:25:38.670Z,101006.22
2023-03-20T23:28:12.350Z,101011.22
2023-03-20T23:30:51.726Z,100995.31
2023-03-20T23:33:25.847Z,101004.94
2023-03-20T23:36:16.092Z,101001.97
2023-03-20T23:38:50.251Z,100996.22
2023-03-20T23:41:43.443Z,100990.13
2023-03-20T23:44:13.473Z,100984.41
2023-03-20T23:46:47.596Z,100982.53
2023-03-20T23:49:19.699Z,100970.81
2023-03-20T23:51:50.434Z,100957.28
2023-03-20T23:54:22.455Z,100945.34
2023-03-20T23:56:53.828Z,100938.53
2023-03-20T23:59:25.224Z,100929.66
